Aplicació Alertes

Dades de l'estació automàtica Sant Martí Sarroca

?
?
Resum diari 22:00 TU
Dades diàries de l'estació meteorològica
Temperatura mitjana 6.3 °C
Temperatura màxima 12.0 °C 12:01 TU
Temperatura mínima -0.6 °C 7:33 TU
Humitat relativa mitjana 46%
Precipitació acumulada 0.0 mm
Ratxa màxima del vent (2 m) 24.1 km/h - 300º 17:49 TU
Irradiació solar global 8.6 MJ/m2

El tram horari està expressat en Temps Universal (TU). Cal sumar una hora en horari d'hivern i dues en horari d'estiu per passar a l'hora oficial.

Sant Martí Sarroca

Metadades estació meteorol´gica
Municipi Sant Martí Sarroca
Comarca Alt Penedès
Altitud 257 m
Data alta 24.05.1997
Estat actual Operativa
Dades de període
Període
TU
TM
°C
TX
°C
TN
°C
HRM
%
PPT
mm
VVM (2 m)
km/h
DVM (2 m)
graus
VVX (2 m)
km/h
RS
W/m2
00:00 - 00:30 0.2 1.0 -0.4 67 0.0 2.2 297 7.2 0
00:30 - 01:00 1.5 2.6 0.6 60 0.0 2.9 341 6.8 0
01:00 - 01:30 3.0 5.0 0.9 54 0.0 3.6 8 10.4 0
01:30 - 02:00 5.5 5.9 4.1 47 0.0 2.5 316 10.1 0
02:00 - 02:30 5.9 6.1 5.5 48 0.0 5.0 295 17.6 0
02:30 - 03:00 5.1 5.6 4.4 51 0.0 2.5 351 7.2 0
03:00 - 03:30 4.4 5.0 4.1 53 0.0 2.2 98 5.0 0
03:30 - 04:00 5.4 6.1 3.8 49 0.0 6.8 324 18.0 0
04:00 - 04:30 4.2 5.3 3.6 54 0.0 5.0 62 11.9 (s/d)
04:30 - 05:00 4.2 5.9 2.8 53 0.0 5.8 333 15.1 0
05:00 - 05:30 5.0 6.1 3.0 48 0.0 7.2 298 18.0 0
05:30 - 06:00 2.9 4.9 2.0 59 0.0 4.3 326 14.0 0
06:00 - 06:30 2.7 4.5 1.4 60 0.0 5.0 167 14.4 (s/d)
06:30 - 07:00 1.3 1.9 0.6 65 0.0 2.9 334 7.2 0
07:00 - 07:30 0.5 1.1 -0.5 66 0.0 3.2 193 7.6 1
07:30 - 08:00 0.2 0.8 -0.6 69 0.0 2.5 102 6.5 16
08:00 - 08:30 1.6 2.5 0.8 65 0.0 1.8 207 7.2 103
08:30 - 09:00 3.4 4.2 2.6 60 0.0 2.5 200 5.8 183
09:00 - 09:30 5.2 7.0 4.2 54 0.0 2.9 295 6.5 255
09:30 - 10:00 7.8 9.6 7.0 44 0.0 4.0 96 14.4 317
10:00 - 10:30 10.2 10.6 9.7 30 0.0 6.8 300 14.0 373
10:30 - 11:00 10.9 11.6 10.1 31 0.0 5.0 254 13.7 410
11:00 - 11:30 10.8 11.0 10.3 38 0.0 4.0 174 16.9 433
11:30 - 12:00 11.5 11.9 10.8 28 0.0 4.7 228 14.8 446
12:00 - 12:30 11.7 12.0 11.5 27 0.0 6.8 302 18.7 446
12:30 - 13:00 11.7 11.9 11.5 28 0.0 7.9 306 20.2 427
13:00 - 13:30 11.6 11.9 11.3 28 0.0 7.2 299 16.9 393
13:30 - 14:00 11.4 11.7 11.0 28 0.0 7.9 313 21.2 345
14:00 - 14:30 11.4 11.8 11.0 28 0.0 5.4 248 23.4 283
14:30 - 15:00 11.4 11.8 11.1 28 0.0 4.3 259 18.0 215
15:00 - 15:30 10.9 11.2 10.7 27 0.0 6.1 274 20.5 143
15:30 - 16:00 10.1 10.7 9.3 27 0.0 4.7 103 17.3 50
16:00 - 16:30 9.0 9.5 8.6 27 0.0 4.0 297 11.9 4
16:30 - 17:00 8.4 8.8 8.1 29 0.0 4.7 354 16.9 0
17:00 - 17:30 8.2 8.4 7.9 35 0.0 5.0 349 18.0 0
17:30 - 18:00 8.2 8.6 7.7 39 0.0 4.0 349 24.1 0
18:00 - 18:30 7.6 8.5 6.3 43 0.0 3.6 67 20.5 (s/d)
18:30 - 19:00 5.4 6.3 4.8 48 0.0 2.5 248 6.8 (s/d)
19:00 - 19:30 5.5 6.5 4.7 50 0.0 2.2 99 4.7 0
19:30 - 20:00 5.6 6.6 4.8 50 0.0 2.5 197 7.6 0
20:00 - 20:30 4.7 5.3 4.1 54 0.0 2.2 99 6.1 0
20:30 - 21:00 3.7 4.7 3.1 59 0.0 2.9 234 8.6 0
21:00 - 21:30 4.9 5.7 4.2 55 0.0 3.6 196 11.2 0
21:30 - 22:00 4.0 4.4 3.6 59 0.0 2.9 194 5.4 0
22:00 - 22:30 3.4 3.7 3.1 62 0.0 1.8 134 5.4 0
22:30 - 23:00 (s/d) (s/d) (s/d) (s/d) (s/d) (s/d) (s/d) (s/d) (s/d)

Les dades en taronja només han passat un control de qualitat automàtic. Resta pendent la seva validació definitiva.